Lake Worth, FL (33462)

1:06 AM EST on December 09, 2016 (GMT -0500)
| | Change Station

Elev -9999 ft 0.00 °N, 0.00 °E | Updated 1 minute ago

Overcast
Overcast
78 °F
Feels Like 78 °F
N
14
Wind Variable Wind from ENE
Gusts 18 mph

Today
High -- | Low -- °F
--% Chance of Precip.
Yesterday
High -- | Low -- °F
Precip. -- in
Pressure 30.12 in
Visibility 10.0 miles
Clouds Few 3500 ft
Scattered Clouds 8500 ft
Scattered Clouds 20000 ft
Dew Point 66 °F
Humidity 66%
Rainfall --
Snow Depth Not available.
6:57 AM 5:28 PM
Waxing Gibbous, 71% visible
METAR KPBI 090553Z 34009KT 10SM FEW035 SCT085 SCT200 21/17 A3012 RMK AO2 SLP199 60000 T02060167 10217 20206 58005
Pressure 30.12 in
Visibility 10.0 miles
Clouds Few 3500 ft
Scattered Clouds 8500 ft
Scattered Clouds 20000 ft
Dew Point 66 °F
Humidity 66%
Rainfall --
Snow Depth Not available.
6:57 AM 5:28 PM
Waxing Gibbous, 71% visible
METAR KPBI 090553Z 34009KT 10SM FEW035 SCT085 SCT200 21/17 A3012 RMK AO2 SLP199 60000 T02060167 10217 20206 58005

10-Day Weather Forecast

Almanac

Astronomy

Dec. 09, 2016 Rise Set
Actual Time
Civil Twilight
Nautical Twilight
Astronomical Twilight
Moon
Length of Visible Light
Length of Day
Tomorrow will be .
, % of the Moon is Illuminated

Today's Extremes

State Highs State Lows

Community

WunderPhotos

Upload Photos

1,956,374 photos uploaded!

WunderBlog® & News

Nearby

Air Quality

  Air Quality AQ Index Pollutant
Not available.

Snow Depth

Station Depth Elevation

Earthquake Activity

City Distance Mag. Time & Date
Minimum magnitude displayed is 2.5.

Coastal Water Temperatures

Place Temperature

Stations

Nearby Weather Stations

Station Location Temp. Windchill Dew Point Humidity Wind Precip. Elev Updated Type
                   

Watches & Warnings

There are currently no watches in effect.